Time;durP1;ratioP1;P1;durP2;ratioP2;P2;SDS_P1;SDS_P2;PMS_P1;PMS_P2;Temp;Humidity;BMP_temperature;BMP_pressure;BME280_temperature;BME280_humidity;BME280_pressure;Samples;Min_cycle;Max_cycle;Signal;HPM_P1;HPM_P2
2023/03/07 00:01:26;;;;;;;10.48;5.15;;;3.00;99.90;;;;;;6215585;23;20024;-90
2023/03/07 00:03:51;;;;;;;11.60;4.95;;;3.10;99.90;;;;;;6213852;23;20451;-91
2023/03/07 00:06:26;;;;;;;10.75;5.38;;;2.50;99.90;;;;;;6188812;23;20063;-91
2023/03/07 00:08:57;;;;;;;13.35;6.40;;;3.70;99.90;;;;;;6213203;23;20083;-90
2023/03/07 00:11:24;;;;;;;13.88;6.05;;;2.90;99.90;;;;;;6213348;23;20098;-91
2023/03/07 00:13:54;;;;;;;11.48;5.60;;;2.40;99.90;;;;;;6213437;23;20021;-91
2023/03/07 00:16:23;;;;;;;9.85;5.18;;;2.80;99.90;;;;;;6213831;23;20470;-90
2023/03/07 00:18:49;;;;;;;11.10;4.80;;;3.10;99.90;;;;;;6217079;23;20024;-90
2023/03/07 00:21:18;;;;;;;8.93;4.20;;;2.90;99.90;;;;;;6215486;23;20435;-92
2023/03/07 00:23:45;;;;;;;9.30;4.38;;;2.80;99.90;;;;;;6215379;23;20029;-91
2023/03/07 00:26:16;;;;;;;9.70;4.30;;;2.80;99.90;;;;;;6216714;23;20020;-91
2023/03/07 00:28:47;;;;;;;7.43;3.88;;;2.90;99.90;;;;;;6227116;22;20020;-91
2023/03/07 00:31:13;;;;;;;6.90;3.33;;;2.80;99.90;;;;;;6278455;22;20019;-92
2023/03/07 00:33:39;;;;;;;6.38;3.05;;;2.00;99.90;;;;;;6250620;22;20027;-88
2023/03/07 00:36:11;;;;;;;6.82;3.20;;;3.60;99.90;;;;;;6275990;22;20043;-87
2023/03/07 00:38:37;;;;;;;6.55;2.90;;;2.90;99.90;;;;;;6275865;22;20312;-91
2023/03/07 00:41:06;;;;;;;6.18;2.58;;;3.70;99.90;;;;;;6275960;22;20062;-89
2023/03/07 00:43:33;;;;;;;6.35;2.65;;;2.50;99.90;;;;;;6277867;22;20011;-90
2023/03/07 00:45:59;;;;;;;6.45;2.88;;;2.20;99.90;;;;;;6276439;22;20103;-90
2023/03/07 00:48:26;;;;;;;3.00;1.60;;;2.50;99.90;;;;;;6275912;22;20438;-89
2023/03/07 00:50:52;;;;;;;3.75;1.23;;;2.70;99.90;;;;;;6278027;22;20062;-89
2023/03/07 00:53:21;;;;;;;3.15;1.38;;;2.70;99.90;;;;;;6275706;22;20051;-91
2023/03/07 00:55:54;;;;;;;2.28;0.90;;;2.70;99.90;;;;;;6276289;22;20373;-90
2023/03/07 00:58:20;;;;;;;2.47;0.75;;;2.70;99.90;;;;;;6275664;22;20020;-86
2023/03/07 01:00:45;;;;;;;3.67;0.77;;;3.90;99.90;;;;;;6276117;22;20058;-90
2023/03/07 01:03:11;;;;;;;3.10;0.65;;;2.20;99.90;;;;;;6276175;22;20016;-90
2023/03/07 01:05:40;;;;;;;2.00;0.40;;;3.60;99.90;;;;;;6277636;22;20073;-91
2023/03/07 01:08:06;;;;;;;5.25;0.55;;;2.80;99.90;;;;;;6275801;22;20016;-90
2023/03/07 01:10:32;;;;;;;2.47;0.50;;;4.00;99.90;;;;;;6275451;22;20020;-89
2023/03/07 01:12:59;;;;;;;2.25;0.43;;;3.10;99.90;;;;;;6277437;22;20012;-89
2023/03/07 01:15:25;;;;;;;5.20;0.43;;;2.90;99.90;;;;;;6275762;22;20026;-91
2023/03/07 01:17:50;;;;;;;4.75;0.40;;;3.30;99.90;;;;;;6275758;22;20020;-91
2023/03/07 01:20:16;;;;;;;4.70;0.60;;;2.50;99.90;;;;;;6275454;22;20011;-92
2023/03/07 01:22:42;;;;;;;5.43;0.77;;;2.90;99.90;;;;;;6276382;22;20042;-92
2023/03/07 01:25:08;;;;;;;0.95;0.40;;;2.90;99.90;;;;;;6277111;22;20015;-92
2023/03/07 01:27:37;;;;;;;3.22;0.45;;;2.90;99.90;;;;;;6277731;22;20417;-91
2023/03/07 01:30:04;;;;;;;3.40;0.60;;;3.10;99.90;;;;;;6274772;22;20019;-90
2023/03/07 01:32:33;;;;;;;4.30;0.60;;;2.80;99.90;;;;;;6277085;22;20022;-89
2023/03/07 01:34:59;;;;;;;3.78;0.35;;;3.60;99.90;;;;;;6277108;22;20012;-89
2023/03/07 01:37:25;;;;;;;4.07;0.40;;;3.70;99.90;;;;;;6276480;22;20078;-89
2023/03/07 01:39:54;;;;;;;5.75;0.82;;;2.20;99.90;;;;;;6275402;22;20024;-90
2023/03/07 01:42:20;;;;;;;5.50;0.60;;;2.70;99.90;;;;;;6275392;22;20058;-90
2023/03/07 01:45:04;;;;;;;3.67;0.52;;;3.10;99.90;;;;;;6277058;22;20071;-89
2023/03/07 01:47:30;;;;;;;3.30;0.60;;;2.60;99.90;;;;;;6277131;22;20016;-90
2023/03/07 01:49:58;;;;;;;2.72;0.60;;;1.50;99.90;;;;;;6276869;22;20022;-90
2023/03/07 01:52:30;;;;;;;6.35;0.50;;;1.40;99.90;;;;;;6277553;22;20016;-88
2023/03/07 01:55:10;;;;;;;6.40;0.70;;;3.60;99.90;;;;;;6277443;22;20012;-90
2023/03/07 01:57:38;;;;;;;3.83;0.73;;;2.60;99.90;;;;;;6275317;22;20465;-91
2023/03/07 02:00:09;;;;;;;6.03;1.08;;;3.20;99.90;;;;;;6275210;22;20019;-90
2023/03/07 02:02:38;;;;;;;2.28;0.40;;;2.50;99.90;;;;;;6275711;22;20426;-90
2023/03/07 02:05:12;;;;;;;3.13;0.32;;;2.50;99.90;;;;;;6275448;22;20069;-91
2023/03/07 02:07:43;;;;;;;2.65;0.32;;;2.40;99.90;;;;;;6274840;22;20016;-87
2023/03/07 02:10:11;;;;;;;2.28;0.50;;;3.60;99.90;;;;;;6275083;22;20102;-92
2023/03/07 02:12:38;;;;;;;2.55;0.40;;;2.40;99.90;;;;;;6276091;22;20091;-92
2023/03/07 02:15:04;;;;;;;2.03;0.30;;;2.30;99.90;;;;;;6276403;22;20026;-91
2023/03/07 02:17:30;;;;;;;7.03;0.45;;;2.00;99.90;;;;;;6276491;22;20315;-90
2023/03/07 02:20:04;;;;;;;0.45;0.22;;;3.30;99.90;;;;;;6276297;22;20087;-91
2023/03/07 02:22:30;;;;;;;3.45;0.30;;;1.70;99.90;;;;;;6275192;22;20031;-89
2023/03/07 02:25:01;;;;;;;2.10;0.30;;;3.30;99.90;;;;;;6276816;22;20007;-90
2023/03/07 02:27:31;;;;;;;2.45;0.30;;;2.20;99.90;;;;;;6277290;22;20019;-92
2023/03/07 02:29:57;;;;;;;0.50;0.22;;;2.20;99.90;;;;;;6276730;22;20020;-91
2023/03/07 02:32:22;;;;;;;5.72;1.05;;;2.20;99.90;;;;;;6277177;22;20075;-90
2023/03/07 02:34:48;;;;;;;4.50;0.40;;;2.40;99.90;;;;;;6277797;22;20034;-90
2023/03/07 02:37:31;;;;;;;5.65;0.65;;;2.40;99.90;;;;;;6275928;22;20043;-90
2023/03/07 02:40:04;;;;;;;4.30;0.43;;;2.40;99.90;;;;;;6274854;22;20507;-88
2023/03/07 02:42:34;;;;;;;3.45;0.40;;;2.10;99.90;;;;;;6277332;22;20024;-88
2023/03/07 02:45:03;;;;;;;4.05;0.50;;;2.30;99.90;;;;;;6277350;22;20022;-88
2023/03/07 02:47:29;;;;;;;1.70;0.47;;;3.00;99.90;;;;;;6275028;22;20016;-89
2023/03/07 02:49:55;;;;;;;5.47;0.40;;;2.80;99.90;;;;;;6275224;22;20141;-90
2023/03/07 02:52:21;;;;;;;2.72;0.30;;;2.10;99.90;;;;;;6276572;22;20095;-91
2023/03/07 02:54:47;;;;;;;2.13;0.40;;;2.20;99.90;;;;;;6277308;22;20019;-88
2023/03/07 02:57:14;;;;;;;3.72;0.43;;;2.20;99.90;;;;;;6277292;22;20022;-88
2023/03/07 02:59:40;;;;;;;1.73;0.30;;;3.40;99.90;;;;;;6276954;22;20042;-89
2023/03/07 03:02:05;;;;;;;3.75;0.35;;;3.10;99.90;;;;;;6277066;22;20389;-92
2023/03/07 03:04:31;;;;;;;4.60;0.50;;;0.90;99.90;;;;;;6276438;22;20381;-89
2023/03/07 03:06:57;;;;;;;3.22;0.60;;;2.00;99.90;;;;;;6274936;22;20073;-91
2023/03/07 03:09:23;;;;;;;1.05;0.40;;;2.00;99.90;;;;;;6274759;22;20085;-84
2023/03/07 03:11:48;;;;;;;4.10;0.32;;;3.10;99.90;;;;;;6276799;22;20458;-92
2023/03/07 03:14:14;;;;;;;3.28;0.40;;;1.40;99.90;;;;;;6276643;22;20444;-91
2023/03/07 03:16:41;;;;;;;3.42;0.60;;;2.30;99.90;;;;;;6276048;22;20019;-91
2023/03/07 03:19:07;;;;;;;6.07;0.60;;;1.70;99.90;;;;;;6276209;22;20481;-92
2023/03/07 03:21:33;;;;;;;2.22;0.47;;;2.00;99.90;;;;;;6275779;22;20012;-92
2023/03/07 03:24:06;;;;;;;2.85;0.40;;;3.20;99.90;;;;;;6276491;22;20102;-89
2023/03/07 03:26:33;;;;;;;2.92;0.40;;;2.00;99.90;;;;;;6276328;22;20016;-92
2023/03/07 03:29:00;;;;;;;2.03;0.35;;;2.70;99.90;;;;;;6275507;22;20426;-90
2023/03/07 03:31:29;;;;;;;1.50;0.40;;;1.20;99.90;;;;;;6276191;22;20020;-93
2023/03/07 03:33:57;;;;;;;9.20;0.98;;;3.20;99.90;;;;;;6274416;22;20363;-91
2023/03/07 03:36:24;;;;;;;6.40;0.32;;;1.90;99.90;;;;;;6276519;22;20018;-91
2023/03/07 03:38:57;;;;;;;1.58;0.30;;;2.50;99.90;;;;;;6276277;22;20084;-88
2023/03/07 03:41:24;;;;;;;2.05;0.50;;;1.30;99.90;;;;;;6274678;22;20015;-90
2023/03/07 03:43:50;;;;;;;3.38;0.50;;;1.60;99.90;;;;;;6276632;22;20347;-92
2023/03/07 03:46:18;;;;;;;2.03;0.20;;;1.90;99.90;;;;;;6276459;22;20099;-89
2023/03/07 03:48:53;;;;;;;2.00;0.30;;;3.20;99.90;;;;;;6276047;22;20024;-91
2023/03/07 03:51:20;;;;;;;3.60;0.60;;;1.80;99.90;;;;;;6275584;22;20098;-91
2023/03/07 03:53:46;;;;;;;3.90;0.63;;;1.70;99.90;;;;;;6275932;22;20103;-90
2023/03/07 03:56:15;;;;;;;0.68;0.30;;;2.00;99.90;;;;;;6274115;22;20458;-91
2023/03/07 03:58:41;;;;;;;3.70;0.70;;;3.20;99.90;;;;;;6275794;22;20073;-90
2023/03/07 04:01:09;;;;;;;5.20;0.50;;;1.90;99.90;;;;;;6248417;22;20059;-90
2023/03/07 04:03:38;;;;;;;2.55;0.40;;;1.80;99.90;;;;;;6275954;22;20073;-90
2023/03/07 04:06:07;;;;;;;3.50;0.47;;;1.50;99.90;;;;;;6276097;22;20460;-87
2023/03/07 04:08:34;;;;;;;2.83;0.35;;;0.90;99.90;;;;;;6276115;22;20342;-89
2023/03/07 04:11:00;;;;;;;3.97;0.63;;;2.00;99.90;;;;;;6274355;22;20022;-91
2023/03/07 04:13:26;;;;;;;5.47;0.32;;;2.00;99.90;;;;;;6275895;22;20043;-90
2023/03/07 04:15:55;;;;;;;4.88;0.50;;;2.90;99.90;;;;;;6274772;22;20042;-90
2023/03/07 04:18:22;;;;;;;3.65;0.55;;;1.90;99.90;;;;;;6274102;22;20012;-90
2023/03/07 04:20:49;;;;;;;3.92;0.65;;;1.80;99.90;;;;;;6275698;22;20054;-89
2023/03/07 04:23:16;;;;;;;4.20;0.35;;;3.10;99.90;;;;;;6275909;22;20022;-90
2023/03/07 04:25:50;;;;;;;4.28;0.40;;;2.40;99.90;;;;;;6274516;22;20130;-90
2023/03/07 04:28:17;;;;;;;4.95;0.40;;;1.70;99.90;;;;;;6275962;22;20019;-89
2023/03/07 04:30:43;;;;;;;4.55;0.60;;;1.00;99.90;;;;;;6248808;22;20059;-90
2023/03/07 04:33:09;;;;;;;3.58;0.52;;;1.80;99.90;;;;;;6276187;22;20024;-89
2023/03/07 04:35:35;;;;;;;2.33;0.40;;;1.90;99.90;;;;;;6274422;22;20027;-89
2023/03/07 04:38:01;;;;;;;3.67;0.40;;;2.10;99.90;;;;;;6275922;22;20016;-90
2023/03/07 04:40:26;;;;;;;1.55;0.38;;;1.80;99.90;;;;;;6276035;22;20024;-91
2023/03/07 04:42:52;;;;;;;2.58;0.60;;;1.90;99.90;;;;;;6274076;22;20023;-90
2023/03/07 04:45:18;;;;;;;4.57;0.57;;;1.80;99.90;;;;;;6248615;22;20012;-89
2023/03/07 04:47:43;;;;;;;6.85;0.40;;;2.30;99.90;;;;;;6274143;22;20028;-89
2023/03/07 04:50:09;;;;;;;2.40;0.65;;;2.60;99.90;;;;;;6275061;22;20078;-92
2023/03/07 04:52:35;;;;;;;6.07;0.50;;;1.90;99.90;;;;;;6275631;22;20020;-90
2023/03/07 04:55:01;;;;;;;6.63;0.95;;;2.90;99.90;;;;;;6274465;22;20019;-88
2023/03/07 04:57:29;;;;;;;5.30;0.63;;;1.50;99.90;;;;;;6274646;22;20012;-89
2023/03/07 04:59:55;;;;;;;5.32;0.60;;;2.00;99.90;;;;;;6275351;22;20023;-90
2023/03/07 05:02:20;;;;;;;4.50;0.40;;;1.90;99.90;;;;;;6276045;22;20017;-89
2023/03/07 05:04:46;;;;;;;4.57;0.57;;;1.20;99.90;;;;;;6277859;22;20528;-92
2023/03/07 05:07:12;;;;;;;3.53;0.50;;;2.00;99.90;;;;;;6278257;22;20011;-90
2023/03/07 05:09:38;;;;;;;4.32;0.50;;;1.90;99.90;;;;;;6277466;22;20022;-89
2023/03/07 05:12:04;;;;;;;4.93;0.52;;;2.00;99.90;;;;;;6278002;22;20450;-90
2023/03/07 05:14:29;;;;;;;10.45;0.50;;;2.00;99.90;;;;;;6276008;22;20023;-88
2023/03/07 05:16:55;;;;;;;2.70;1.45;;;2.00;99.90;;;;;;6277543;22;20071;-90
2023/03/07 05:19:21;;;;;;;4.65;0.50;;;0.90;99.90;;;;;;6275521;22;20398;-89
2023/03/07 05:21:48;;;;;;;2.65;0.45;;;2.00;99.90;;;;;;6277329;22;20012;-85
2023/03/07 05:24:14;;;;;;;3.60;0.60;;;2.50;99.90;;;;;;6275928;22;20091;-90
2023/03/07 05:26:40;;;;;;;2.20;0.60;;;2.80;99.90;;;;;;6277277;22;20053;-87
2023/03/07 05:29:06;;;;;;;6.35;0.47;;;1.90;99.90;;;;;;6277234;22;20022;-91
2023/03/07 05:31:32;;;;;;;6.00;0.70;;;2.90;99.90;;;;;;6275591;22;20388;-92
2023/03/07 05:33:58;;;;;;;4.15;0.60;;;1.50;99.90;;;;;;6275841;22;20059;-91
2023/03/07 05:36:24;;;;;;;3.63;0.50;;;1.50;99.90;;;;;;6277049;22;20093;-92
2023/03/07 05:38:52;;;;;;;3.80;0.80;;;3.30;99.90;;;;;;6276808;22;20016;-90
2023/03/07 05:41:18;;;;;;;3.65;0.40;;;2.80;99.90;;;;;;6275847;22;20466;-87
2023/03/07 05:43:44;;;;;;;1.48;0.30;;;2.10;99.90;;;;;;6277717;22;20016;-90
2023/03/07 05:46:09;;;;;;;5.47;0.40;;;1.60;99.90;;;;;;6276571;22;20034;-90
2023/03/07 05:48:35;;;;;;;4.97;0.50;;;2.10;99.90;;;;;;6277220;22;20019;-90
2023/03/07 05:51:01;;;;;;;5.78;0.38;;;3.40;99.90;;;;;;6275283;22;20023;-90
2023/03/07 05:53:27;;;;;;;1.95;0.68;;;1.70;99.90;;;;;;6276882;22;20016;-89
2023/03/07 05:55:52;;;;;;;2.17;0.30;;;3.40;99.90;;;;;;6276741;22;20454;-89
2023/03/07 05:58:18;;;;;;;4.97;0.40;;;2.30;99.90;;;;;;6276895;22;20054;-91
2023/03/07 06:00:44;;;;;;;3.17;0.50;;;2.10;99.90;;;;;;6276647;22;20019;-90
2023/03/07 06:03:10;;;;;;;1.42;0.32;;;3.00;99.90;;;;;;6277027;22;20331;-89
2023/03/07 06:05:35;;;;;;;3.78;0.30;;;2.40;99.90;;;;;;6276645;22;20015;-90
2023/03/07 06:08:02;;;;;;;0.70;0.30;;;1.70;99.90;;;;;;6276200;22;20020;-88
2023/03/07 06:10:28;;;;;;;0.70;0.20;;;2.60;99.90;;;;;;6276044;22;20022;-90
2023/03/07 06:12:54;;;;;;;1.38;0.30;;;3.40;99.90;;;;;;6276351;22;20016;-89
2023/03/07 06:15:23;;;;;;;2.10;0.50;;;3.40;99.90;;;;;;6274645;22;20051;-86
2023/03/07 06:17:51;;;;;;;2.78;0.45;;;2.80;99.90;;;;;;6276444;22;20024;-87
2023/03/07 06:20:19;;;;;;;4.70;0.40;;;2.00;99.90;;;;;;6274404;22;20454;-89
2023/03/07 06:22:46;;;;;;;0.47;0.20;;;2.50;99.90;;;;;;6275102;22;20015;-90
2023/03/07 06:25:14;;;;;;;1.40;0.40;;;1.80;99.90;;;;;;6274287;22;20016;-90
2023/03/07 06:27:39;;;;;;;1.63;0.38;;;0.90;99.90;;;;;;6275003;22;20023;-91
2023/03/07 06:30:06;;;;;;;7.55;0.40;;;1.70;99.90;;;;;;6276179;22;20012;-91
2023/03/07 06:32:32;;;;;;;1.42;0.30;;;1.70;99.90;;;;;;6276920;22;20034;-92
2023/03/07 06:34:58;;;;;;;1.23;0.20;;;1.30;99.90;;;;;;6249785;22;20016;-91
2023/03/07 06:37:23;;;;;;;2.25;0.30;;;1.70;99.90;;;;;;6276286;22;20047;-90
2023/03/07 06:39:49;;;;;;;3.30;0.40;;;1.70;99.90;;;;;;6275861;22;20019;-91
2023/03/07 06:42:15;;;;;;;3.83;0.30;;;0.50;99.90;;;;;;6274602;22;20008;-90
2023/03/07 06:44:41;;;;;;;2.17;0.50;;;1.70;99.90;;;;;;6279956;22;20032;-91
2023/03/07 06:47:07;;;;;;;1.02;0.30;;;1.80;99.90;;;;;;6275366;22;20402;-90
2023/03/07 06:49:33;;;;;;;3.30;0.40;;;2.70;99.90;;;;;;6276090;22;20023;-90
2023/03/07 06:51:59;;;;;;;3.42;0.50;;;3.10;99.90;;;;;;6276641;22;20016;-91
2023/03/07 06:54:27;;;;;;;6.70;0.82;;;1.90;99.90;;;;;;6274649;22;20019;-89
2023/03/07 06:56:56;;;;;;;3.00;0.40;;;1.90;99.90;;;;;;6276340;22;20015;-89
2023/03/07 06:59:22;;;;;;;1.52;0.30;;;1.90;99.90;;;;;;6248901;22;20050;-88
2023/03/07 07:01:48;;;;;;;2.40;0.32;;;2.30;99.90;;;;;;6276451;22;20020;-87
2023/03/07 07:04:13;;;;;;;1.60;0.30;;;3.10;99.90;;;;;;6274723;22;20011;-91
2023/03/07 07:06:39;;;;;;;2.13;0.30;;;3.10;99.90;;;;;;6276303;22;20019;-89
2023/03/07 07:09:10;;;;;;;1.00;0.32;;;2.00;99.90;;;;;;6276508;22;20068;-89
2023/03/07 07:11:39;;;;;;;2.53;0.55;;;2.10;99.90;;;;;;6276556;22;20027;-90
2023/03/07 07:14:05;;;;;;;2.55;0.70;;;2.10;99.90;;;;;;6249784;22;20049;-91
2023/03/07 07:16:32;;;;;;;1.90;0.40;;;2.10;99.90;;;;;;6275297;22;20016;-92
2023/03/07 07:19:01;;;;;;;3.33;0.30;;;2.80;99.90;;;;;;6274883;22;20016;-92
2023/03/07 07:21:30;;;;;;;2.05;0.30;;;2.10;99.90;;;;;;6274955;22;20020;-90
2023/03/07 07:23:59;;;;;;;2.47;0.20;;;2.10;99.90;;;;;;6275098;22;20012;-90
2023/03/07 07:26:25;;;;;;;0.45;0.32;;;3.50;99.90;;;;;;6274528;22;20379;-90
2023/03/07 07:28:52;;;;;;;2.97;0.28;;;2.20;99.90;;;;;;6274472;22;20152;-90
2023/03/07 07:31:20;;;;;;;2.70;0.25;;;2.20;99.90;;;;;;6276466;22;20024;-87
2023/03/07 07:33:50;;;;;;;0.65;0.30;;;1.90;99.90;;;;;;6275272;22;20019;-88
2023/03/07 07:36:16;;;;;;;1.45;0.40;;;1.90;99.90;;;;;;6276512;22;20054;-89
2023/03/07 07:38:42;;;;;;;1.13;0.30;;;2.30;99.90;;;;;;6248455;22;20389;-89
2023/03/07 07:41:08;;;;;;;5.18;0.40;;;1.90;99.90;;;;;;6275816;22;20077;-89
2023/03/07 07:43:33;;;;;;;1.50;0.30;;;2.40;99.90;;;;;;6274239;22;20101;-88
2023/03/07 07:46:03;;;;;;;2.33;0.55;;;2.40;99.90;;;;;;6274719;22;20102;-89
2023/03/07 07:48:32;;;;;;;3.92;0.50;;;2.40;99.90;;;;;;6274158;22;20482;-88
2023/03/07 07:51:02;;;;;;;0.38;0.20;;;2.50;99.90;;;;;;6273828;22;20019;-89
2023/03/07 07:53:29;;;;;;;1.27;0.30;;;2.50;99.90;;;;;;6275045;22;20099;-89
2023/03/07 07:55:57;;;;;;;1.88;0.30;;;2.70;99.90;;;;;;6275763;22;20316;-92
2023/03/07 07:58:24;;;;;;;0.98;0.28;;;2.60;99.90;;;;;;6274591;22;20019;-84
2023/03/07 08:00:56;;;;;;;0.40;0.30;;;2.60;99.90;;;;;;6274539;22;20019;-90
2023/03/07 08:03:27;;;;;;;7.45;0.40;;;2.60;99.90;;;;;;6274508;22;20084;-91
2023/03/07 08:06:09;;;;;;;2.67;0.28;;;2.50;99.90;;;;;;6274343;22;20020;-88
2023/03/07 08:09:15;;;;;;;0.93;0.30;;;2.70;99.90;;;;;;6274271;22;20011;-87
2023/03/07 08:11:49;;;;;;;2.78;0.40;;;2.60;99.90;;;;;;6274771;22;20023;-88
2023/03/07 08:14:15;;;;;;;2.20;0.45;;;2.80;99.90;;;;;;6249124;22;20011;-89
2023/03/07 08:16:44;;;;;;;2.97;0.45;;;3.00;99.90;;;;;;6276337;22;20046;-86
2023/03/07 08:19:25;;;;;;;4.40;0.57;;;3.10;99.90;;;;;;6275676;22;20099;-91
2023/03/07 08:22:16;;;;;;;6.10;0.50;;;2.20;99.90;;;;;;6273317;22;20055;-88
2023/03/07 08:24:48;;;;;;;2.38;0.30;;;2.60;99.90;;;;;;6275867;22;20015;-88
2023/03/07 08:27:14;;;;;;;3.08;0.45;;;3.70;99.90;;;;;;6274720;22;20011;-86
2023/03/07 08:29:54;;;;;;;6.68;0.73;;;2.50;99.90;;;;;;6275507;22;20019;-87
2023/03/07 08:32:36;;;;;;;2.00;0.30;;;2.60;99.90;;;;;;6273658;22;20081;-87
2023/03/07 08:35:30;;;;;;;1.85;0.40;;;2.50;99.90;;;;;;6275617;22;20517;-89
2023/03/07 08:38:02;;;;;;;;;;;2.50;99.90;;;;;;6274527;22;20038;-86
2023/03/07 08:40:46;;;;;;;1.50;0.50;;;2.40;99.90;;;;;;6249529;22;20002;-88
2023/03/07 08:43:17;;;;;;;5.25;0.50;;;2.00;99.90;;;;;;6252856;22;20020;-87
2023/03/07 08:45:49;;;;;;;6.40;0.60;;;1.50;99.90;;;;;;6278279;22;20015;-84
2023/03/07 08:48:38;;;;;;;1.98;0.30;;;3.20;99.90;;;;;;6277903;22;20035;-89
2023/03/07 08:51:14;;;;;;;4.50;1.58;;;2.50;99.90;;;;;;6217042;23;20068;-90
2023/03/07 08:54:00;;;;;;;3.88;0.40;;;2.50;99.90;;;;;;6189279;23;20021;-91
2023/03/07 08:56:26;;;;;;;3.55;0.40;;;3.10;99.90;;;;;;6188274;23;20032;-83
2023/03/07 08:58:53;;;;;;;1.42;0.47;;;2.50;99.90;;;;;;6187498;23;20027;-85
2023/03/07 09:01:18;;;;;;;2.72;0.40;;;2.90;99.90;;;;;;6163379;23;20107;-83
2023/03/07 09:03:44;;;;;;;1.88;0.30;;;2.70;99.90;;;;;;6163588;23;20359;-84
2023/03/07 09:06:19;;;;;;;3.67;0.50;;;3.60;99.90;;;;;;6163260;23;20013;-85
2023/03/07 09:08:46;;;;;;;0.63;0.40;;;2.70;99.90;;;;;;6188159;23;20059;-86
2023/03/07 09:11:16;;;;;;;3.30;0.50;;;2.70;99.90;;;;;;6188189;23;20016;-87
2023/03/07 09:13:44;;;;;;;5.57;0.43;;;2.50;99.90;;;;;;6187621;23;20020;-87
2023/03/07 09:16:10;;;;;;;0.30;0.30;;;2.90;99.90;;;;;;6188191;23;20044;-86
2023/03/07 09:18:36;;;;;;;1.73;0.40;;;2.40;99.90;;;;;;6212979;23;20087;-87
2023/03/07 09:21:04;;;;;;;1.00;0.30;;;2.90;99.90;;;;;;6186376;23;20024;-85
2023/03/07 09:23:30;;;;;;;0.45;0.40;;;2.90;99.90;;;;;;6186896;23;20422;-84
2023/03/07 09:26:07;;;;;;;3.70;0.40;;;3.00;99.90;;;;;;6188316;23;20517;-85
2023/03/07 09:28:33;;;;;;;4.70;0.50;;;3.00;99.90;;;;;;6257532;22;20012;-86
2023/03/07 09:31:05;;;;;;;5.85;0.90;;;3.50;99.90;;;;;;6274921;22;20565;-86
2023/03/07 09:33:35;;;;;;;1.70;0.30;;;3.00;99.90;;;;;;6275487;22;20020;-86
2023/03/07 09:36:08;;;;;;;1.20;0.40;;;3.00;99.90;;;;;;6275440;22;20034;-85
2023/03/07 09:38:38;;;;;;;1.52;0.47;;;3.00;99.90;;;;;;6277794;22;20090;-90
2023/03/07 09:41:18;;;;;;;2.17;0.30;;;3.80;99.90;;;;;;6276285;22;20019;-87
2023/03/07 09:44:07;;;;;;;6.82;0.52;;;3.10;99.90;;;;;;6277081;22;20394;-86
2023/03/07 09:46:55;;;;;;;2.65;0.38;;;3.20;99.90;;;;;;6275654;22;20022;-84
2023/03/07 09:49:37;;;;;;;1.75;0.52;;;2.50;99.90;;;;;;6277146;22;20015;-85
2023/03/07 09:52:17;;;;;;;2.20;0.40;;;3.30;99.90;;;;;;6275687;22;20089;-87
2023/03/07 09:54:50;;;;;;;4.82;0.50;;;3.10;99.90;;;;;;6276614;22;20023;-88
2023/03/07 09:57:26;;;;;;;2.67;0.45;;;3.30;99.90;;;;;;6275182;22;20069;-87
2023/03/07 09:59:55;;;;;;;1.20;0.30;;;3.30;99.90;;;;;;6274871;22;20058;-84
2023/03/07 10:02:33;;;;;;;1.48;0.30;;;3.70;99.90;;;;;;6274473;22;20019;-87
2023/03/07 10:05:17;;;;;;;2.65;0.35;;;3.00;99.90;;;;;;6249826;22;20019;-85
2023/03/07 10:07:43;;;;;;;1.20;0.30;;;3.30;99.90;;;;;;6274884;22;20065;-85
2023/03/07 10:10:24;;;;;;;1.05;0.40;;;2.90;99.90;;;;;;6249259;22;20023;-85
2023/03/07 10:13:28;;;;;;;4.22;0.40;;;3.50;99.90;;;;;;6275331;22;20023;-86
2023/03/07 10:15:58;;;;;;;2.33;0.52;;;3.50;99.90;;;;;;6275273;22;20026;-85
2023/03/07 10:19:01;;;;;;;1.65;0.30;;;4.50;99.90;;;;;;6276769;22;20019;-86
2023/03/07 10:21:45;;;;;;;1.08;0.30;;;2.80;99.90;;;;;;6276687;22;20012;-85
2023/03/07 10:24:26;;;;;;;0.35;0.30;;;3.50;99.90;;;;;;6274620;22;20015;-85
2023/03/07 10:27:04;;;;;;;3.10;0.50;;;3.60;99.90;;;;;;6274678;22;20020;-85
2023/03/07 10:29:43;;;;;;;2.28;0.40;;;4.70;99.90;;;;;;6274517;22;20045;-84
2023/03/07 10:32:18;;;;;;;3.45;0.68;;;3.80;99.90;;;;;;6276423;22;20019;-85
2023/03/07 10:34:45;;;;;;;1.85;0.47;;;4.00;99.90;;;;;;6275140;22;20083;-85
2023/03/07 10:37:19;;;;;;;3.30;0.40;;;3.60;99.90;;;;;;6276818;22;20020;-85
2023/03/07 10:39:53;;;;;;;1.48;0.30;;;4.20;99.90;;;;;;6274596;22;20469;-85
2023/03/07 10:42:22;;;;;;;0.45;0.25;;;5.30;99.90;;;;;;6274492;22;20102;-85
2023/03/07 10:44:49;;;;;;;0.95;0.28;;;4.40;99.90;;;;;;6276027;22;20018;-85
2023/03/07 10:47:22;;;;;;;3.22;0.35;;;5.60;99.90;;;;;;6276221;22;20541;-85
2023/03/07 10:49:52;;;;;;;1.80;0.30;;;4.70;99.90;;;;;;6275917;22;20422;-85
2023/03/07 10:52:39;;;;;;;8.38;0.50;;;5.80;99.90;;;;;;6274834;22;20051;-85
2023/03/07 10:55:36;;;;;;;2.42;0.20;;;5.10;99.90;;;;;;6249249;22;20019;-85
2023/03/07 10:58:28;;;;;;;1.48;0.30;;;5.40;99.90;;;;;;6274383;22;20099;-85
2023/03/07 11:01:05;;;;;;;5.65;0.50;;;6.70;99.90;;;;;;6272326;22;20353;-86
2023/03/07 11:03:53;;;;;;;1.13;0.30;;;5.60;99.90;;;;;;6274643;22;20011;-85
2023/03/07 11:06:29;;;;;;;2.22;0.40;;;5.60;99.90;;;;;;6274675;22;20358;-85
2023/03/07 11:08:56;;;;;;;3.55;0.30;;;5.30;99.90;;;;;;6275792;22;20462;-85
2023/03/07 11:11:25;;;;;;;5.13;0.40;;;5.70;99.90;;;;;;6274253;22;20016;-85
2023/03/07 11:14:11;;;;;;;4.43;0.65;;;6.00;99.90;;;;;;6276396;22;20027;-85
2023/03/07 11:16:52;;;;;;;4.00;0.65;;;5.80;99.90;;;;;;6274884;22;20023;-85
2023/03/07 11:19:42;;;;;;;4.22;0.98;;;5.70;99.90;;;;;;6274385;22;20020;-86
2023/03/07 11:22:25;;;;;;;3.13;0.40;;;5.80;99.90;;;;;;6274440;22;20356;-85
2023/03/07 11:24:53;;;;;;;4.57;0.70;;;5.60;99.90;;;;;;6274378;22;20020;-85
2023/03/07 11:27:23;;;;;;;11.32;0.60;;;6.70;99.90;;;;;;6276393;22;20015;-85
2023/03/07 11:30:15;;;;;;;2.28;0.50;;;5.50;99.90;;;;;;6272945;22;20020;-85
2023/03/07 11:32:57;;;;;;;7.53;0.52;;;5.50;99.90;;;;;;6274531;22;20027;-85
2023/03/07 11:35:57;;;;;;;3.88;0.45;;;5.30;99.90;;;;;;6274823;22;20442;-85
2023/03/07 11:38:41;;;;;;;3.17;0.68;;;5.20;99.90;;;;;;6212453;23;20017;-85
2023/03/07 11:41:15;;;;;;;3.42;0.60;;;5.20;99.90;;;;;;6212073;23;20025;-85
2023/03/07 11:43:53;;;;;;;11.85;0.63;;;5.30;99.90;;;;;;6187135;23;20017;-85
2023/03/07 11:47:00;;;;;;;3.00;0.60;;;5.10;99.90;;;;;;6187207;23;20479;-85
2023/03/07 11:49:35;;;;;;;4.28;0.65;;;5.10;99.90;;;;;;6181952;23;20032;-85
2023/03/07 11:52:17;;;;;;;1.40;0.50;;;5.00;99.90;;;;;;6182039;23;20027;-86
2023/03/07 11:55:17;;;;;;;5.43;0.60;;;5.10;99.90;;;;;;6132678;23;20557;-86
2023/03/07 11:58:11;;;;;;;6.47;0.40;;;5.30;99.90;;;;;;6157896;23;20438;-85
2023/03/07 12:00:55;;;;;;;1.85;0.40;;;5.10;99.90;;;;;;6181970;23;20021;-85
2023/03/07 12:03:54;;;;;;;4.38;1.08;;;4.90;99.90;;;;;;6182281;23;20013;-86
2023/03/07 12:06:47;;;;;;;2.33;0.30;;;5.50;99.90;;;;;;6156964;23;20028;-86
2023/03/07 12:09:16;;;;;;;1.50;0.30;;;6.80;99.90;;;;;;6182065;23;20087;-86
2023/03/07 12:12:09;;;;;;;1.35;0.30;;;5.70;99.90;;;;;;6157716;23;20021;-86
2023/03/07 12:15:17;;;;;;;1.85;0.20;;;5.80;99.90;;;;;;6197675;23;20336;-85
2023/03/07 12:18:05;;;;;;;2.40;0.32;;;6.00;99.90;;;;;;6219210;23;20016;-85
2023/03/07 12:20:46;;;;;;;1.55;0.25;;;6.10;99.90;;;;;;6218845;23;20016;-85
2023/03/07 12:23:17;;;;;;;1.92;0.50;;;6.20;99.90;;;;;;6244353;23;20020;-86
2023/03/07 12:26:11;;;;;;;7.18;0.57;;;6.40;99.90;;;;;;6234292;22;20019;-85
2023/03/07 12:29:14;;;;;;;1.88;0.38;;;6.70;99.90;;;;;;6277895;22;20012;-85
2023/03/07 12:31:44;;;;;;;1.77;0.20;;;7.00;99.90;;;;;;6188220;23;20083;-85
2023/03/07 12:34:10;;;;;;;1.85;0.40;;;6.50;98.70;;;;;;6188828;23;20074;-86
2023/03/07 12:36:45;;;;;;;1.20;0.28;;;6.90;99.90;;;;;;6188639;23;20486;-86
2023/03/07 12:39:19;;;;;;;1.65;0.30;;;7.00;99.20;;;;;;6213686;23;20483;-85
2023/03/07 12:42:10;;;;;;;1.35;0.28;;;7.00;99.90;;;;;;6214054;23;20478;-86
2023/03/07 12:44:57;;;;;;;6.93;0.55;;;7.00;99.90;;;;;;6213710;23;20052;-86
2023/03/07 12:47:59;;;;;;;3.22;0.30;;;7.20;97.10;;;;;;6213376;23;20024;-85
2023/03/07 12:50:45;;;;;;;2.95;0.30;;;7.20;97.30;;;;;;6188546;23;20021;-85
2023/03/07 12:53:33;;;;;;;5.18;0.60;;;7.10;97.60;;;;;;6163613;23;20056;-86
2023/03/07 12:56:31;;;;;;;2.15;0.40;;;7.30;97.10;;;;;;6213751;23;20052;-86
2023/03/07 12:59:10;;;;;;;3.53;0.38;;;7.50;96.10;;;;;;6188688;23;20048;-85
2023/03/07 13:01:42;;;;;;;0.93;0.30;;;7.40;96.10;;;;;;6213080;23;20025;-86
2023/03/07 13:04:42;;;;;;;1.60;0.32;;;7.30;97.10;;;;;;6188312;23;20058;-87
2023/03/07 13:07:26;;;;;;;1.92;0.40;;;7.50;98.40;;;;;;6194448;23;20354;-85
2023/03/07 13:09:55;;;;;;;1.58;0.30;;;6.90;99.90;;;;;;6246983;22;20095;-86
2023/03/07 13:12:28;;;;;;;5.22;0.50;;;7.40;99.90;;;;;;6244761;23;20073;-86
2023/03/07 13:14:57;;;;;;;8.07;0.50;;;6.70;99.90;;;;;;6246412;22;20052;-87
2023/03/07 13:17:26;;;;;;;5.13;0.45;;;6.70;99.90;;;;;;6244713;23;20050;-86
2023/03/07 13:20:22;;;;;;;1.25;0.25;;;6.70;99.90;;;;;;6244761;23;20024;-85
2023/03/07 13:22:47;;;;;;;4.30;0.45;;;6.90;99.90;;;;;;6158285;23;20017;-85